createdAt,value
2022-08-17T00:00:52.271Z,100475.97
2022-08-17T00:03:19.337Z,100476.94
2022-08-17T00:05:47.822Z,100480.81
2022-08-17T00:08:15.034Z,100476.97
2022-08-17T00:10:42.403Z,100477.84
2022-08-17T00:13:10.309Z,100481.84
2022-08-17T00:15:37.128Z,100474.69
2022-08-17T00:18:03.973Z,100473.13
2022-08-17T00:20:50.269Z,100474.34
2022-08-17T00:23:17.208Z,100476.38
2022-08-17T00:25:45.684Z,100476.47
2022-08-17T00:28:12.429Z,100482.06
2022-08-17T00:30:53.139Z,100489.56
2022-08-17T00:33:25.530Z,100490.78
2022-08-17T00:35:52.551Z,100486.84
2022-08-17T00:38:18.891Z,100490.88
2022-08-17T00:40:47.020Z,100483.81
2022-08-17T00:43:14.353Z,100482.66
2022-08-17T00:45:41.083Z,100474.81
2022-08-17T00:48:11.543Z,100475.94
2022-08-17T00:51:03.295Z,100472.69
2022-08-17T00:53:31.233Z,100476.53
2022-08-17T00:56:02.074Z,100472.16
2022-08-17T00:58:35.895Z,100470.53
2022-08-17T01:01:03.888Z,100472.91
2022-08-17T01:03:31.159Z,100476.91
2022-08-17T01:05:59.988Z,100475.69
2022-08-17T01:08:28.066Z,100483.59
2022-08-17T01:10:58.587Z,100476.47
2022-08-17T01:13:28.923Z,100486.38
2022-08-17T01:15:57.717Z,100483.59
2022-08-17T01:18:25.150Z,100486.00
2022-08-17T01:20:53.975Z,100487.22
2022-08-17T01:23:22.207Z,100491.22
2022-08-17T01:25:54.029Z,100491.25
2022-08-17T01:28:52.810Z,100486.09
2022-08-17T01:31:07.901Z,100481.75
2022-08-17T01:33:35.035Z,100489.38
2022-08-17T01:36:01.571Z,100485.38
2022-08-17T01:38:31.765Z,100487.03
2022-08-17T01:41:03.127Z,100486.66
2022-08-17T01:43:39.926Z,100487.88
2022-08-17T01:46:06.301Z,100493.88
2022-08-17T01:48:33.525Z,100493.16
2022-08-17T01:51:00.027Z,100501.50
2022-08-17T01:53:29.407Z,100499.16
2022-08-17T01:55:57.806Z,100501.94
2022-08-17T01:58:24.441Z,100504.69
2022-08-17T02:01:00.250Z,100502.38
2022-08-17T02:03:27.956Z,100512.34
2022-08-17T02:05:54.368Z,100503.69
2022-08-17T02:08:21.332Z,100500.50
2022-08-17T02:11:08.919Z,100504.50
2022-08-17T02:13:38.059Z,100502.94
2022-08-17T02:16:04.379Z,100498.72
2022-08-17T02:18:30.692Z,100499.56
2022-08-17T02:20:57.363Z,100502.69
2022-08-17T02:23:24.843Z,100506.28
2022-08-17T02:25:51.230Z,100494.34
2022-08-17T02:28:18.475Z,100505.06
2022-08-17T02:31:01.332Z,100507.50
2022-08-17T02:33:41.914Z,100509.03
2022-08-17T02:36:11.374Z,100498.75
2022-08-17T02:38:37.896Z,100499.09
2022-08-17T02:41:04.563Z,100501.03
2022-08-17T02:43:31.267Z,100499.78
2022-08-17T02:45:57.730Z,100494.25
2022-08-17T02:48:31.225Z,100491.06
2022-08-17T02:50:58.107Z,100493.81
2022-08-17T02:53:24.452Z,100490.59
2022-08-17T02:55:52.370Z,100491.00
2022-08-17T02:58:34.540Z,100494.19
2022-08-17T03:01:03.314Z,100485.16
2022-08-17T03:03:29.763Z,100491.50
2022-08-17T03:05:56.352Z,100489.16
2022-08-17T03:08:23.291Z,100495.50
2022-08-17T03:10:50.385Z,100501.44
2022-08-17T03:13:17.280Z,100495.13
2022-08-17T03:15:45.157Z,100493.13
2022-08-17T03:18:24.195Z,100494.34
2022-08-17T03:20:52.738Z,100496.75
2022-08-17T03:23:19.055Z,100489.63
2022-08-17T03:25:52.798Z,100491.59
2022-08-17T03:28:20.531Z,100485.69
2022-08-17T03:30:47.032Z,100486.47
2022-08-17T03:33:13.710Z,100497.19
2022-08-17T03:35:40.526Z,100499.56
2022-08-17T03:38:08.675Z,100494.06
2022-08-17T03:40:57.892Z,100495.31
2022-08-17T03:43:22.132Z,100505.19
2022-08-17T03:46:19.302Z,100501.28
2022-08-17T03:49:11.909Z,100499.78
2022-08-17T03:51:56.647Z,100496.59
2022-08-17T03:54:41.421Z,100499.69
2022-08-17T03:57:09.350Z,100499.28
2022-08-17T03:59:36.675Z,100489.78
2022-08-17T04:02:11.449Z,100487.88
2022-08-17T04:04:38.464Z,100497.00
2022-08-17T04:07:05.759Z,100498.59
2022-08-17T04:09:32.120Z,100501.13
2022-08-17T04:12:01.185Z,100496.00
2022-08-17T04:14:39.253Z,100493.13
2022-08-17T04:17:18.852Z,100504.53
2022-08-17T04:19:46.354Z,100492.63
2022-08-17T04:22:32.680Z,100499.66
2022-08-17T04:24:59.539Z,100501.59
2022-08-17T04:27:25.845Z,100503.53
2022-08-17T04:29:55.338Z,100498.28
2022-08-17T04:32:58.519Z,100494.34
2022-08-17T04:35:09.449Z,100498.91
2022-08-17T04:37:35.777Z,100504.84
2022-08-17T04:40:20.502Z,100508.75
2022-08-17T04:43:00.180Z,100510.84
2022-08-17T04:45:27.352Z,100518.19
2022-08-17T04:47:58.449Z,100514.13
2022-08-17T04:50:24.966Z,100523.19
2022-08-17T04:52:51.273Z,100528.28
2022-08-17T04:55:17.594Z,100522.72
2022-08-17T04:57:45.221Z,100526.66
2022-08-17T05:00:11.831Z,100535.03
2022-08-17T05:02:50.121Z,100532.16
2022-08-17T05:05:20.857Z,100535.31
2022-08-17T05:07:47.247Z,100543.63
2022-08-17T05:10:13.650Z,100537.38
2022-08-17T05:12:39.944Z,100540.50
2022-08-17T05:15:10.389Z,100541.84
2022-08-17T05:17:36.716Z,100551.34
2022-08-17T05:20:03.200Z,100544.91
2022-08-17T05:22:29.543Z,100554.06
2022-08-17T05:24:55.854Z,100552.06
2022-08-17T05:27:22.728Z,100551.25
2022-08-17T05:32:38.224Z,100543.09
2022-08-17T05:35:02.382Z,100554.22
2022-08-17T05:37:28.659Z,100556.00
2022-08-17T05:39:55.133Z,100561.63
2022-08-17T05:42:21.572Z,100564.22
2022-08-17T05:44:47.869Z,100562.63
2022-08-17T05:47:14.196Z,100560.25
2022-08-17T05:49:40.606Z,100571.91
2022-08-17T05:52:06.914Z,100554.91
2022-08-17T05:54:33.200Z,100564.38
2022-08-17T05:57:02.234Z,100555.78
2022-08-17T05:59:48.123Z,100564.25
2022-08-17T06:02:18.781Z,100566.03
2022-08-17T06:04:45.067Z,100568.28
2022-08-17T06:07:11.364Z,100569.31
2022-08-17T06:09:45.950Z,100565.66
2022-08-17T06:12:30.829Z,100569.50
2022-08-17T06:15:07.357Z,100577.41
2022-08-17T06:17:34.194Z,100580.16
2022-08-17T06:20:04.342Z,100582.88
2022-08-17T06:22:33.315Z,100587.94
2022-08-17T06:25:04.559Z,100590.22
2022-08-17T06:27:48.627Z,100590.50
2022-08-17T06:30:20.230Z,100586.25
2022-08-17T06:32:48.852Z,100594.56
2022-08-17T06:35:18.309Z,100593.16
2022-08-17T06:38:00.786Z,100592.50
2022-08-17T06:40:50.188Z,100587.50
2022-08-17T06:43:35.337Z,100597.78
2022-08-17T06:46:11.391Z,100598.13
2022-08-17T06:48:42.586Z,100597.72
2022-08-17T06:51:21.450Z,100592.78
2022-08-17T06:53:51.064Z,100598.38
2022-08-17T06:56:24.276Z,100602.31
2022-08-17T06:59:14.461Z,100607.03
2022-08-17T07:01:41.923Z,100609.34
2022-08-17T07:04:19.976Z,100610.88
2022-08-17T07:07:26.558Z,100610.72
2022-08-17T07:09:53.816Z,100616.41
2022-08-17T07:12:22.550Z,100618.72
2022-08-17T07:14:51.706Z,100616.78
2022-08-17T07:17:18.687Z,100618.44
2022-08-17T07:19:46.211Z,100619.78
2022-08-17T07:22:55.304Z,100617.22
2022-08-17T07:25:18.463Z,100620.97
2022-08-17T07:27:53.839Z,100615.88
2022-08-17T07:30:22.231Z,100620.00
2022-08-17T07:32:54.843Z,100623.47
2022-08-17T07:35:31.257Z,100623.47
2022-08-17T07:38:25.068Z,100625.97
2022-08-17T07:41:05.919Z,100641.41
2022-08-17T07:43:36.713Z,100640.84
2022-08-17T07:46:21.837Z,100646.19
2022-08-17T07:48:50.454Z,100647.75
2022-08-17T07:51:18.974Z,100650.09
2022-08-17T07:53:45.539Z,100648.38
2022-08-17T07:56:34.400Z,100643.34
2022-08-17T07:59:10.486Z,100651.56
2022-08-17T08:01:41.601Z,100650.25
2022-08-17T08:04:43.215Z,100653.97
2022-08-17T08:07:13.818Z,100661.38
2022-08-17T08:09:41.650Z,100658.50
2022-08-17T08:12:28.936Z,100662.25
2022-08-17T08:15:09.285Z,100660.06
2022-08-17T08:17:49.572Z,100662.28
2022-08-17T08:20:34.892Z,100664.06
2022-08-17T08:23:06.478Z,100665.09
2022-08-17T08:25:43.360Z,100676.47
2022-08-17T08:28:09.708Z,100675.94
2022-08-17T08:30:38.385Z,100671.03
2022-08-17T08:33:04.686Z,100670.50
2022-08-17T08:35:32.726Z,100672.34
2022-08-17T08:38:25.445Z,100672.69
2022-08-17T08:40:54.801Z,100667.72
2022-08-17T08:43:27.466Z,100663.69
2022-08-17T08:46:12.398Z,100665.63
2022-08-17T08:48:53.657Z,100669.91
2022-08-17T08:51:39.641Z,100650.66
2022-08-17T08:54:28.358Z,100667.81
2022-08-17T08:59:57.905Z,100676.88
2022-08-17T09:02:48.198Z,100684.72
2022-08-17T09:05:21.316Z,100687.31
2022-08-17T09:07:51.136Z,100695.09
2022-08-17T09:10:39.061Z,100695.34
2022-08-17T09:13:10.938Z,100694.09
2022-08-17T09:15:42.349Z,100697.50
2022-08-17T09:19:03.500Z,100699.25
2022-08-17T09:20:54.944Z,100713.38
2022-08-17T09:23:27.348Z,100702.16
2022-08-17T09:26:06.194Z,100703.66
2022-08-17T09:28:36.835Z,100707.91
2022-08-17T09:31:11.598Z,100714.53
2022-08-17T09:33:42.410Z,100719.59
2022-08-17T09:36:11.651Z,100713.78
2022-08-17T09:38:52.975Z,100709.31
2022-08-17T09:41:38.091Z,100712.78
2022-08-17T09:44:05.052Z,100724.22
2022-08-17T09:46:35.713Z,100727.28
2022-08-17T09:49:11.729Z,100725.63
2022-08-17T09:51:41.124Z,100720.66
2022-08-17T09:54:44.511Z,100727.88
2022-08-17T09:57:30.323Z,100723.72
2022-08-17T10:00:09.370Z,100726.41
2022-08-17T10:03:00.401Z,100725.50
2022-08-17T10:05:56.587Z,100730.22
2022-08-17T10:08:32.040Z,100720.25
2022-08-17T10:11:55.731Z,100723.06
2022-08-17T10:14:56.264Z,100726.53
2022-08-17T10:17:36.308Z,100724.41
2022-08-17T10:20:02.597Z,100725.41
2022-08-17T10:22:53.102Z,100727.75
2022-08-17T10:25:53.985Z,100725.16
2022-08-17T10:28:28.834Z,100724.06
2022-08-17T10:31:23.347Z,100721.72
2022-08-17T10:33:50.958Z,100725.50
2022-08-17T10:36:32.857Z,100730.44
2022-08-17T10:39:08.441Z,100723.16
2022-08-17T10:41:43.491Z,100735.50
2022-08-17T10:44:38.077Z,100731.81
2022-08-17T10:47:11.686Z,100721.69
2022-08-17T10:49:39.346Z,100721.81
2022-08-17T10:52:21.836Z,100718.34
2022-08-17T10:54:51.012Z,100720.34
2022-08-17T10:57:26.978Z,100719.25
2022-08-17T10:59:57.211Z,100717.22
2022-08-17T11:02:26.930Z,100713.94
2022-08-17T11:04:53.222Z,100711.38
2022-08-17T11:07:38.099Z,100720.25
2022-08-17T11:10:10.454Z,100724.06
2022-08-17T11:12:45.861Z,100724.28
2022-08-17T11:15:18.158Z,100725.41
2022-08-17T11:17:51.054Z,100717.44
2022-08-17T11:20:29.888Z,100719.78
2022-08-17T11:23:10.100Z,100711.81
2022-08-17T11:25:40.934Z,100716.88
2022-08-17T11:28:28.145Z,100714.41
2022-08-17T11:30:57.065Z,100714.72
2022-08-17T11:33:29.867Z,100720.78
2022-08-17T11:36:12.256Z,100715.75
2022-08-17T11:38:57.977Z,100714.50
2022-08-17T11:41:42.987Z,100708.66
2022-08-17T11:44:28.173Z,100711.47
2022-08-17T11:47:16.616Z,100695.56
2022-08-17T11:50:28.332Z,100686.16
2022-08-17T11:52:54.964Z,100690.75
2022-08-17T11:55:35.793Z,100685.94
2022-08-17T11:58:06.542Z,100685.94
2022-08-17T12:00:44.735Z,100681.63
2022-08-17T12:03:22.540Z,100679.41
2022-08-17T12:05:50.242Z,100681.41
2022-08-17T12:08:21.591Z,100672.34
2022-08-17T12:11:00.575Z,100677.16
2022-08-17T12:13:30.613Z,100685.09
2022-08-17T12:16:07.262Z,100685.03
2022-08-17T12:18:37.472Z,100686.69
2022-08-17T12:21:19.382Z,100689.03
2022-08-17T12:23:50.141Z,100691.53
2022-08-17T12:26:20.991Z,100688.59
2022-08-17T12:28:49.034Z,100691.28
2022-08-17T12:31:24.617Z,100692.72
2022-08-17T12:33:51.784Z,100694.66
2022-08-17T12:36:26.144Z,100691.84
2022-08-17T12:38:57.198Z,100687.00
2022-08-17T12:41:34.148Z,100684.88
2022-08-17T12:44:03.341Z,100684.66
2022-08-17T12:46:33.385Z,100685.34
2022-08-17T12:49:16.156Z,100678.59
2022-08-17T12:51:43.951Z,100682.06
2022-08-17T12:54:21.952Z,100668.50
2022-08-17T12:56:48.322Z,100668.22
2022-08-17T12:59:15.291Z,100662.38
2022-08-17T13:01:56.664Z,100654.09
2022-08-17T13:04:24.125Z,100659.25
2022-08-17T13:06:59.524Z,100656.78
2022-08-17T13:09:35.567Z,100651.16
2022-08-17T13:12:06.394Z,100642.00
2022-08-17T13:14:34.158Z,100637.69
2022-08-17T13:17:02.039Z,100639.28
2022-08-17T13:19:40.897Z,100640.06
2022-08-17T13:22:09.816Z,100649.72
2022-08-17T13:24:38.262Z,100648.47
2022-08-17T13:27:09.979Z,100650.63
2022-08-17T13:29:51.331Z,100652.53
2022-08-17T13:32:39.961Z,100641.75
2022-08-17T13:35:32.817Z,100636.50
2022-08-17T13:38:06.453Z,100641.38
2022-08-17T13:40:37.161Z,100640.84
2022-08-17T13:43:03.962Z,100635.00
2022-08-17T13:45:36.302Z,100636.34
2022-08-17T13:48:06.562Z,100636.34
2022-08-17T13:50:33.214Z,100636.78
2022-08-17T13:52:59.732Z,100636.22
2022-08-17T13:55:28.129Z,100636.66
2022-08-17T13:58:04.142Z,100637.81
2022-08-17T14:00:35.437Z,100637.13
2022-08-17T14:03:02.707Z,100632.31
2022-08-17T14:05:30.390Z,100636.22
2022-08-17T14:07:58.992Z,100634.91
2022-08-17T14:10:25.532Z,100633.56
2022-08-17T14:12:52.754Z,100628.53
2022-08-17T14:15:21.187Z,100633.22
2022-08-17T14:17:49.123Z,100628.19
2022-08-17T14:20:17.047Z,100626.47
2022-08-17T14:22:45.067Z,100626.81
2022-08-17T14:25:12.147Z,100625.91
2022-08-17T14:27:52.467Z,100624.66
2022-08-17T14:30:21.820Z,100625.91
2022-08-17T14:32:49.011Z,100620.03
2022-08-17T14:35:16.144Z,100619.59
2022-08-17T14:37:44.629Z,100619.47
2022-08-17T14:40:12.606Z,100619.72
2022-08-17T14:42:40.667Z,100622.63
2022-08-17T14:45:29.980Z,100616.91
2022-08-17T14:47:54.739Z,100614.09
2022-08-17T14:50:22.145Z,100614.09
2022-08-17T14:52:49.147Z,100611.75
2022-08-17T14:55:18.170Z,100618.91
2022-08-17T14:57:45.174Z,100613.31
2022-08-17T15:00:11.715Z,100626.63
2022-08-17T15:02:53.566Z,100618.34
2022-08-17T15:05:21.096Z,100616.84
2022-08-17T15:07:47.469Z,100605.28
2022-08-17T15:10:14.321Z,100615.88
2022-08-17T15:12:41.059Z,100618.84
2022-08-17T15:15:08.974Z,100622.91
2022-08-17T15:17:45.098Z,100618.09
2022-08-17T15:20:20.785Z,100616.06
2022-08-17T15:22:49.787Z,100605.75
2022-08-17T15:25:17.611Z,100611.81
2022-08-17T15:27:44.068Z,100609.91
2022-08-17T15:30:11.670Z,100609.28
2022-08-17T15:32:39.236Z,100607.41
2022-08-17T15:35:06.463Z,100599.09
2022-08-17T15:37:33.390Z,100597.50
2022-08-17T15:40:03.399Z,100594.38
2022-08-17T15:42:29.849Z,100601.34
2022-08-17T15:44:56.400Z,100600.59
2022-08-17T15:47:23.270Z,100595.88
2022-08-17T15:49:50.671Z,100596.34
2022-08-17T15:52:18.465Z,100596.75
2022-08-17T15:54:53.636Z,100597.78
2022-08-17T15:57:20.425Z,100591.16
2022-08-17T15:59:47.722Z,100598.94
2022-08-17T16:03:15.264Z,100590.50
2022-08-17T16:05:14.245Z,100590.72
2022-08-17T16:07:44.142Z,100584.81
2022-08-17T16:10:14.140Z,100582.13
2022-08-17T16:12:44.342Z,100579.88
2022-08-17T16:15:11.419Z,100574.06
2022-08-17T16:17:40.576Z,100566.88
2022-08-17T16:20:07.895Z,100560.41
2022-08-17T16:22:36.400Z,100564.13
2022-08-17T16:25:11.248Z,100570.75
2022-08-17T16:27:37.637Z,100561.88
2022-08-17T16:30:05.358Z,100562.56
2022-08-17T16:32:32.970Z,100544.22
2022-08-17T16:35:04.343Z,100557.31
2022-08-17T16:37:30.938Z,100556.63
2022-08-17T16:40:00.770Z,100555.28
2022-08-17T16:42:29.481Z,100563.13
2022-08-17T16:44:57.472Z,100558.31
2022-08-17T16:47:23.929Z,100557.88
2022-08-17T16:49:50.353Z,100562.22
2022-08-17T16:52:32.786Z,100559.88
2022-08-17T16:55:00.231Z,100560.69
2022-08-17T16:57:27.250Z,100551.47
2022-08-17T16:59:53.844Z,100554.63
2022-08-17T17:02:25.978Z,100556.19
2022-08-17T17:04:56.095Z,100548.22
2022-08-17T17:07:34.512Z,100546.66
2022-08-17T17:10:09.619Z,100548.22
2022-08-17T17:13:02.713Z,100546.31
2022-08-17T17:15:28.008Z,100527.94
2022-08-17T17:17:56.580Z,100539.59
2022-08-17T17:20:28.912Z,100536.81
2022-08-17T17:23:04.254Z,100537.59
2022-08-17T17:25:44.531Z,100532.09
2022-08-17T17:28:38.522Z,100542.53
2022-08-17T17:31:15.914Z,100542.53
2022-08-17T17:33:56.391Z,100540.19
2022-08-17T17:36:32.599Z,100541.06
2022-08-17T17:39:01.655Z,100537.13
2022-08-17T17:41:32.510Z,100540.81
2022-08-17T17:44:25.163Z,100541.72
2022-08-17T17:46:54.415Z,100541.38
2022-08-17T17:49:20.929Z,100542.66
2022-08-17T17:52:07.231Z,100541.84
2022-08-17T17:54:52.941Z,100541.75
2022-08-17T17:57:24.558Z,100547.03
2022-08-17T18:00:09.125Z,100553.53
2022-08-17T18:02:52.750Z,100554.53
2022-08-17T18:05:19.523Z,100556.22
2022-08-17T18:07:54.191Z,100560.38
2022-08-17T18:10:30.037Z,100563.03
2022-08-17T18:13:02.649Z,100563.38
2022-08-17T18:15:35.114Z,100564.38
2022-08-17T18:18:04.568Z,100567.41
2022-08-17T18:20:43.199Z,100577.72
2022-08-17T18:23:18.465Z,100564.28
2022-08-17T18:25:49.464Z,100568.19
2022-08-17T18:28:22.646Z,100568.75
2022-08-17T18:31:06.876Z,100561.53
2022-08-17T18:33:33.730Z,100570.19
2022-08-17T18:36:01.565Z,100566.16
2022-08-17T18:38:33.807Z,100574.78
2022-08-17T18:41:00.160Z,100574.78
2022-08-17T18:43:28.963Z,100568.19
2022-08-17T18:46:28.970Z,100582.97
2022-08-17T18:49:25.307Z,100583.88
2022-08-17T18:52:07.080Z,100585.78
2022-08-17T18:54:36.032Z,100590.13
2022-08-17T18:57:02.396Z,100588.13
2022-08-17T18:59:39.447Z,100596.44
2022-08-17T19:02:21.603Z,100595.53
2022-08-17T19:04:59.306Z,100597.53
2022-08-17T19:07:30.914Z,100597.22
2022-08-17T19:10:01.483Z,100590.47
2022-08-17T19:12:34.854Z,100601.13
2022-08-17T19:15:02.396Z,100599.34
2022-08-17T19:17:32.989Z,100593.63
2022-08-17T19:20:07.338Z,100599.91
2022-08-17T19:22:47.466Z,100593.28
2022-08-17T19:25:17.197Z,100592.28
2022-08-17T19:27:50.827Z,100585.78
2022-08-17T19:30:24.283Z,100595.19
2022-08-17T19:32:50.927Z,100594.16
2022-08-17T19:35:20.118Z,100602.91
2022-08-17T19:38:00.748Z,100610.06
2022-08-17T19:40:54.403Z,100603.19
2022-08-17T19:43:18.069Z,100604.88
2022-08-17T19:45:47.412Z,100598.78
2022-08-17T19:48:19.790Z,100594.31
2022-08-17T19:50:54.832Z,100592.25
2022-08-17T19:53:47.376Z,100599.03
2022-08-17T19:56:20.002Z,100589.16
2022-08-17T19:58:58.117Z,100593.44
2022-08-17T20:01:34.914Z,100587.72
2022-08-17T20:04:06.721Z,100586.47
2022-08-17T20:06:34.316Z,100591.50
2022-08-17T20:09:14.828Z,100600.63
2022-08-17T20:11:45.341Z,100587.81
2022-08-17T20:14:17.449Z,100592.31
2022-08-17T20:16:43.790Z,100584.13
2022-08-17T20:19:28.845Z,100593.91
2022-08-17T20:22:01.727Z,100587.69
2022-08-17T20:24:28.064Z,100596.19
2022-08-17T20:27:09.913Z,100591.59
2022-08-17T20:29:58.213Z,100587.00
2022-08-17T20:32:55.254Z,100578.63
2022-08-17T20:35:30.700Z,100584.81
2022-08-17T20:37:58.576Z,100593.06
2022-08-17T20:40:28.305Z,100583.00
2022-08-17T20:42:55.390Z,100585.34
2022-08-17T20:45:21.727Z,100583.66
2022-08-17T20:48:15.161Z,100579.75
2022-08-17T20:50:38.725Z,100582.31
2022-08-17T20:53:06.705Z,100592.94
2022-08-17T20:55:52.054Z,100589.47
2022-08-17T20:58:20.230Z,100588.00
2022-08-17T21:00:59.031Z,100584.31
2022-08-17T21:03:28.600Z,100587.50
2022-08-17T21:06:17.121Z,100576.78
2022-08-17T21:08:53.189Z,100578.31
2022-08-17T21:11:57.114Z,100581.78
2022-08-17T21:14:23.816Z,100580.34
2022-08-17T21:17:02.388Z,100584.34
2022-08-17T21:20:00.616Z,100579.41
2022-08-17T21:22:42.109Z,100582.28
2022-08-17T21:25:32.360Z,100585.53
2022-08-17T21:28:33.628Z,100582.63
2022-08-17T21:31:08.259Z,100587.25
2022-08-17T21:33:36.574Z,100580.19
2022-08-17T21:36:11.759Z,100582.63
2022-08-17T21:38:40.675Z,100593.56
2022-08-17T21:41:18.272Z,100581.34
2022-08-17T21:43:47.691Z,100588.56
2022-08-17T21:46:25.086Z,100589.44
2022-08-17T21:48:53.685Z,100584.38
2022-08-17T21:51:23.179Z,100588.91
2022-08-17T21:53:55.775Z,100586.03
2022-08-17T21:56:27.234Z,100589.97
2022-08-17T21:59:01.709Z,100585.56
2022-08-17T22:01:28.126Z,100586.56
2022-08-17T22:04:05.608Z,100576.25
2022-08-17T22:06:40.360Z,100582.63
2022-08-17T22:09:09.396Z,100584.13
2022-08-17T22:11:54.177Z,100582.63
2022-08-17T22:14:52.889Z,100579.16
2022-08-17T22:17:22.341Z,100588.03
2022-08-17T22:19:54.135Z,100592.06
2022-08-17T22:22:24.437Z,100583.41
2022-08-17T22:25:11.422Z,100588.66
2022-08-17T22:28:04.006Z,100581.53
2022-08-17T22:30:41.628Z,100592.34
2022-08-17T22:33:26.508Z,100583.09
2022-08-17T22:36:07.787Z,100583.53
2022-08-17T22:38:34.305Z,100581.59
2022-08-17T22:41:34.541Z,100576.19
2022-08-17T22:44:27.084Z,100578.88
2022-08-17T22:46:56.051Z,100576.78
2022-08-17T22:49:26.517Z,100573.19
2022-08-17T22:52:03.416Z,100576.50
2022-08-17T22:54:48.571Z,100570.16
2022-08-17T22:57:33.978Z,100566.91
2022-08-17T23:00:00.721Z,100567.09
2022-08-17T23:02:27.081Z,100564.56
2022-08-17T23:05:16.790Z,100567.59
2022-08-17T23:07:44.226Z,100555.66
2022-08-17T23:10:11.838Z,100559.63
2022-08-17T23:12:39.523Z,100565.59
2022-08-17T23:15:10.611Z,100555.00
2022-08-17T23:17:37.753Z,100557.03
2022-08-17T23:20:05.604Z,100557.03
2022-08-17T23:22:32.738Z,100552.47
2022-08-17T23:24:59.738Z,100545.44
2022-08-17T23:27:29.326Z,100555.00
2022-08-17T23:29:55.765Z,100546.81
2022-08-17T23:32:22.814Z,100541.78
2022-08-17T23:34:50.795Z,100542.88
2022-08-17T23:37:18.180Z,100538.91
2022-08-17T23:39:45.116Z,100537.72
2022-08-17T23:42:13.325Z,100538.63
2022-08-17T23:44:41.548Z,100533.06
2022-08-17T23:47:08.040Z,100532.25
2022-08-17T23:49:36.038Z,100534.22
2022-08-17T23:52:04.929Z,100536.13
2022-08-17T23:54:33.409Z,100531.06
2022-08-17T23:57:00.717Z,100518.91
2022-08-17T23:59:27.475Z,100518.28
